sensor_id;sensor_type;location;lat;lon;timestamp;pressure;altitude;pressure_sealevel;temperature;humidity
73700;BME280;62005;50.082;8.988;2023-05-03T00:01:09;101552.06;;;8.66;69.26
73700;BME280;62005;50.082;8.988;2023-05-03T00:03:35;101554.47;;;8.61;68.71
73700;BME280;62005;50.082;8.988;2023-05-03T00:06:09;101554.09;;;8.64;69.73
73700;BME280;62005;50.082;8.988;2023-05-03T00:08:35;101564.03;;;8.63;70.35
73700;BME280;62005;50.082;8.988;2023-05-03T00:11:00;101556.50;;;8.59;70.32
73700;BME280;62005;50.082;8.988;2023-05-03T00:13:25;101548.50;;;8.51;70.57
73700;BME280;62005;50.082;8.988;2023-05-03T00:15:51;101525.91;;;8.29;70.54
73700;BME280;62005;50.082;8.988;2023-05-03T00:18:16;101562.03;;;8.43;70.88
73700;BME280;62005;50.082;8.988;2023-05-03T00:20:42;101560.69;;;8.39;69.96
73700;BME280;62005;50.082;8.988;2023-05-03T00:23:07;101523.44;;;8.20;70.21
73700;BME280;62005;50.082;8.988;2023-05-03T00:25:33;101566.09;;;8.39;69.94
73700;BME280;62005;50.082;8.988;2023-05-03T00:27:59;101559.06;;;8.30;70.14
73700;BME280;62005;50.082;8.988;2023-05-03T00:30:24;101562.13;;;8.27;69.90
73700;BME280;62005;50.082;8.988;2023-05-03T00:32:50;101549.34;;;8.21;69.90
73700;BME280;62005;50.082;8.988;2023-05-03T00:35:15;101556.41;;;8.22;70.72
73700;BME280;62005;50.082;8.988;2023-05-03T00:37:41;101553.41;;;8.17;70.36
73700;BME280;62005;50.082;8.988;2023-05-03T00:40:07;101547.38;;;8.15;70.28
73700;BME280;62005;50.082;8.988;2023-05-03T00:42:34;101545.69;;;8.14;70.48
73700;BME280;62005;50.082;8.988;2023-05-03T00:45:01;101525.91;;;7.98;70.59
73700;BME280;62005;50.082;8.988;2023-05-03T00:47:29;101525.28;;;7.97;71.09
73700;BME280;62005;50.082;8.988;2023-05-03T00:49:55;101536.03;;;7.97;70.83
73700;BME280;62005;50.082;8.988;2023-05-03T00:52:20;101540.41;;;7.97;71.17
73700;BME280;62005;50.082;8.988;2023-05-03T00:54:46;101536.41;;;7.85;71.22
73700;BME280;62005;50.082;8.988;2023-05-03T00:57:11;101523.00;;;7.77;71.18
73700;BME280;62005;50.082;8.988;2023-05-03T00:59:37;101526.09;;;7.66;71.41
73700;BME280;62005;50.082;8.988;2023-05-03T01:02:03;101532.78;;;7.70;71.51
73700;BME280;62005;50.082;8.988;2023-05-03T01:04:29;101523.78;;;7.63;71.43
73700;BME280;62005;50.082;8.988;2023-05-03T01:09:32;101531.00;;;7.63;72.27
73700;BME280;62005;50.082;8.988;2023-05-03T01:17:34;101508.34;;;7.49;71.20
73700;BME280;62005;50.082;8.988;2023-05-03T01:20:04;101516.59;;;7.48;72.43
73700;BME280;62005;50.082;8.988;2023-05-03T01:25:11;101518.97;;;7.43;72.15
73700;BME280;62005;50.082;8.988;2023-05-03T01:27:38;101516.13;;;7.36;72.50
73700;BME280;62005;50.082;8.988;2023-05-03T01:30:05;101505.78;;;7.25;72.14
73700;BME280;62005;50.082;8.988;2023-05-03T01:32:45;101512.81;;;7.26;71.82
73700;BME280;62005;50.082;8.988;2023-05-03T01:37:46;101517.53;;;7.16;72.95
73700;BME280;62005;50.082;8.988;2023-05-03T01:40:13;101505.78;;;7.09;72.51
73700;BME280;62005;50.082;8.988;2023-05-03T01:42:41;101497.09;;;7.07;72.81
73700;BME280;62005;50.082;8.988;2023-05-03T01:45:07;101503.28;;;7.08;72.44
73700;BME280;62005;50.082;8.988;2023-05-03T01:47:33;101513.22;;;7.07;72.79
73700;BME280;62005;50.082;8.988;2023-05-03T01:49:58;101516.06;;;7.06;72.61
73700;BME280;62005;50.082;8.988;2023-05-03T01:52:24;101508.50;;;7.01;72.00
73700;BME280;62005;50.082;8.988;2023-05-03T01:54:49;101502.97;;;6.95;72.33
73700;BME280;62005;50.082;8.988;2023-05-03T01:57:15;101504.84;;;6.86;72.44
73700;BME280;62005;50.082;8.988;2023-05-03T01:59:40;101501.84;;;6.89;72.60
73700;BME280;62005;50.082;8.988;2023-05-03T02:02:05;101513.22;;;6.91;71.79
73700;BME280;62005;50.082;8.988;2023-05-03T02:04:31;101513.94;;;6.85;72.57
73700;BME280;62005;50.082;8.988;2023-05-03T02:06:56;101519.31;;;6.85;72.30
73700;BME280;62005;50.082;8.988;2023-05-03T02:09:22;101505.56;;;6.72;72.51
73700;BME280;62005;50.082;8.988;2023-05-03T02:11:48;101500.69;;;6.68;72.65
73700;BME280;62005;50.082;8.988;2023-05-03T02:14:13;101513.13;;;6.69;73.26
73700;BME280;62005;50.082;8.988;2023-05-03T02:16:39;101533.09;;;6.74;72.71
73700;BME280;62005;50.082;8.988;2023-05-03T02:19:04;101510.94;;;6.64;72.40
73700;BME280;62005;50.082;8.988;2023-05-03T02:21:32;101520.66;;;6.73;73.21
73700;BME280;62005;50.082;8.988;2023-05-03T02:23:58;101517.97;;;6.65;72.66
73700;BME280;62005;50.082;8.988;2023-05-03T02:26:24;101540.81;;;6.69;73.10
73700;BME280;62005;50.082;8.988;2023-05-03T02:28:49;101541.47;;;6.63;73.22
73700;BME280;62005;50.082;8.988;2023-05-03T02:31:14;101541.47;;;6.63;73.49
73700;BME280;62005;50.082;8.988;2023-05-03T02:33:40;101532.44;;;6.56;73.17
73700;BME280;62005;50.082;8.988;2023-05-03T02:36:05;101538.16;;;6.61;73.21
73700;BME280;62005;50.082;8.988;2023-05-03T02:38:31;101527.06;;;6.56;73.73
73700;BME280;62005;50.082;8.988;2023-05-03T02:40:56;101521.38;;;6.51;72.68
73700;BME280;62005;50.082;8.988;2023-05-03T02:43:22;101529.75;;;6.56;72.91
73700;BME280;62005;50.082;8.988;2023-05-03T02:45:47;101528.06;;;6.55;73.17
73700;BME280;62005;50.082;8.988;2023-05-03T02:48:12;101527.88;;;6.48;72.36
73700;BME280;62005;50.082;8.988;2023-05-03T02:50:38;101536.63;;;6.50;73.35
73700;BME280;62005;50.082;8.988;2023-05-03T02:53:03;101521.00;;;6.38;73.41
73700;BME280;62005;50.082;8.988;2023-05-03T02:55:29;101536.81;;;6.41;73.17
73700;BME280;62005;50.082;8.988;2023-05-03T02:57:54;101514.63;;;6.23;74.16
73700;BME280;62005;50.082;8.988;2023-05-03T03:00:20;101546.19;;;6.37;74.45
73700;BME280;62005;50.082;8.988;2023-05-03T03:02:45;101531.41;;;6.25;74.30
73700;BME280;62005;50.082;8.988;2023-05-03T03:05:11;101548.19;;;6.35;74.42
73700;BME280;62005;50.082;8.988;2023-05-03T03:07:36;101541.81;;;6.28;74.44
73700;BME280;62005;50.082;8.988;2023-05-03T03:10:03;101543.84;;;6.26;73.47
73700;BME280;62005;50.082;8.988;2023-05-03T03:12:28;101532.06;;;6.19;73.64
73700;BME280;62005;50.082;8.988;2023-05-03T03:14:54;101543.84;;;6.26;73.74
73700;BME280;62005;50.082;8.988;2023-05-03T03:17:19;101524.53;;;6.14;73.87
73700;BME280;62005;50.082;8.988;2023-05-03T03:19:44;101532.06;;;6.19;74.64
73700;BME280;62005;50.082;8.988;2023-05-03T03:22:10;101526.03;;;6.09;73.92
73700;BME280;62005;50.082;8.988;2023-05-03T03:24:35;101539.44;;;6.17;73.83
73700;BME280;62005;50.082;8.988;2023-05-03T03:27:00;101529.22;;;6.04;74.66
73700;BME280;62005;50.082;8.988;2023-05-03T03:29:28;101542.81;;;6.11;74.27
73700;BME280;62005;50.082;8.988;2023-05-03T03:31:54;101526.69;;;5.95;74.45
73700;BME280;62005;50.082;8.988;2023-05-03T03:34:19;101526.50;;;5.96;74.62
73700;BME280;62005;50.082;8.988;2023-05-03T03:36:44;101538.06;;;5.97;74.79
73700;BME280;62005;50.082;8.988;2023-05-03T03:39:10;101544.78;;;6.01;74.81
73700;BME280;62005;50.082;8.988;2023-05-03T03:41:35;101536.41;;;5.96;74.96
73700;BME280;62005;50.082;8.988;2023-05-03T03:44:01;101544.28;;;5.97;74.84
73700;BME280;62005;50.082;8.988;2023-05-03T03:46:26;101513.84;;;5.73;74.60
73700;BME280;62005;50.082;8.988;2023-05-03T03:48:52;101537.06;;;5.90;74.83
73700;BME280;62005;50.082;8.988;2023-05-03T03:51:17;101515.50;;;5.74;74.70
73700;BME280;62005;50.082;8.988;2023-05-03T03:53:42;101534.03;;;5.85;74.98
73700;BME280;62005;50.082;8.988;2023-05-03T03:56:07;101537.69;;;5.84;74.65
73700;BME280;62005;50.082;8.988;2023-05-03T03:58:33;101545.03;;;5.82;74.96
73700;BME280;62005;50.082;8.988;2023-05-03T04:00:59;101532.97;;;5.78;75.29
73700;BME280;62005;50.082;8.988;2023-05-03T04:03:25;101508.94;;;5.60;75.44
73700;BME280;62005;50.082;8.988;2023-05-03T04:05:50;101542.03;;;5.77;74.79
73700;BME280;62005;50.082;8.988;2023-05-03T04:08:16;101531.06;;;5.70;74.72
73700;BME280;62005;50.082;8.988;2023-05-03T04:10:41;101523.00;;;5.62;75.61
73700;BME280;62005;50.082;8.988;2023-05-03T04:13:07;101537.28;;;5.71;75.20
73700;BME280;62005;50.082;8.988;2023-05-03T04:15:32;101542.13;;;5.67;75.85
73700;BME280;62005;50.082;8.988;2023-05-03T04:17:58;101543.16;;;5.66;76.03
73700;BME280;62005;50.082;8.988;2023-05-03T04:20:23;101543.31;;;5.65;75.34
73700;BME280;62005;50.082;8.988;2023-05-03T04:22:48;101538.28;;;5.62;76.00
73700;BME280;62005;50.082;8.988;2023-05-03T04:25:14;101543.31;;;5.65;76.60
73700;BME280;62005;50.082;8.988;2023-05-03T04:27:41;101558.75;;;5.71;76.69
73700;BME280;62005;50.082;8.988;2023-05-03T04:30:07;101555.09;;;5.72;76.65
73700;BME280;62005;50.082;8.988;2023-05-03T04:32:32;101566.50;;;5.82;76.39
73700;BME280;62005;50.082;8.988;2023-05-03T04:35:03;101572.94;;;5.89;76.62
73700;BME280;62005;50.082;8.988;2023-05-03T04:37:32;101559.69;;;5.87;76.09
73700;BME280;62005;50.082;8.988;2023-05-03T04:39:57;101562.56;;;6.02;76.85
73700;BME280;62005;50.082;8.988;2023-05-03T04:42:23;101561.59;;;6.11;76.59
73700;BME280;62005;50.082;8.988;2023-05-03T04:44:48;101563.94;;;6.22;76.82
73700;BME280;62005;50.082;8.988;2023-05-03T04:47:13;101564.63;;;6.32;76.32
73700;BME280;62005;50.082;8.988;2023-05-03T04:49:39;101546.53;;;6.34;76.13
73700;BME280;62005;50.082;8.988;2023-05-03T04:52:04;101559.78;;;6.51;76.42
73700;BME280;62005;50.082;8.988;2023-05-03T04:54:29;101569.38;;;6.70;75.89
73700;BME280;62005;50.082;8.988;2023-05-03T04:56:55;101549.53;;;6.71;75.72
73700;BME280;62005;50.082;8.988;2023-05-03T04:59:20;101570.00;;;6.96;75.56
73700;BME280;62005;50.082;8.988;2023-05-03T05:01:46;101570.31;;;7.09;75.45
73700;BME280;62005;50.082;8.988;2023-05-03T05:04:12;101569.28;;;7.26;74.84
73700;BME280;62005;50.082;8.988;2023-05-03T05:06:37;101568.25;;;7.43;74.32
73700;BME280;62005;50.082;8.988;2023-05-03T05:09:05;101566.00;;;7.55;74.24
73700;BME280;62005;50.082;8.988;2023-05-03T05:11:31;101558.72;;;7.71;74.40
73700;BME280;62005;50.082;8.988;2023-05-03T05:13:57;101553.91;;;7.89;74.18
73700;BME280;62005;50.082;8.988;2023-05-03T05:16:22;101563.53;;;8.15;73.17
73700;BME280;62005;50.082;8.988;2023-05-03T05:18:47;101573.88;;;8.34;72.94
73700;BME280;62005;50.082;8.988;2023-05-03T05:21:13;101566.69;;;8.49;72.11
73700;BME280;62005;50.082;8.988;2023-05-03T05:23:38;101570.03;;;8.73;71.82
73700;BME280;62005;50.082;8.988;2023-05-03T05:26:04;101552.50;;;8.92;71.29
73700;BME280;62005;50.082;8.988;2023-05-03T05:28:29;101552.25;;;9.16;70.04
73700;BME280;62005;50.082;8.988;2023-05-03T05:30:55;101569.09;;;9.47;69.57
73700;BME280;62005;50.082;8.988;2023-05-03T05:33:20;101574.50;;;9.76;69.65
73700;BME280;62005;50.082;8.988;2023-05-03T05:35:46;101562.28;;;10.09;68.89
73700;BME280;62005;50.082;8.988;2023-05-03T05:38:12;101564.47;;;10.41;67.46
73700;BME280;62005;50.082;8.988;2023-05-03T05:40:38;101564.88;;;10.81;66.64
73700;BME280;62005;50.082;8.988;2023-05-03T05:43:03;101568.94;;;11.19;64.07
73700;BME280;62005;50.082;8.988;2023-05-03T05:45:29;101564.97;;;11.55;64.50
73700;BME280;62005;50.082;8.988;2023-05-03T05:47:55;101576.50;;;11.98;62.88
73700;BME280;62005;50.082;8.988;2023-05-03T05:50:21;101546.97;;;12.29;61.68
73700;BME280;62005;50.082;8.988;2023-05-03T05:52:50;101557.66;;;12.63;60.60
73700;BME280;62005;50.082;8.988;2023-05-03T05:55:16;101567.94;;;12.94;58.19
73700;BME280;62005;50.082;8.988;2023-05-03T05:57:41;101544.97;;;13.09;57.49
73700;BME280;62005;50.082;8.988;2023-05-03T06:00:07;101555.56;;;13.44;57.47
73700;BME280;62005;50.082;8.988;2023-05-03T06:02:38;101546.94;;;13.73;56.55
73700;BME280;62005;50.082;8.988;2023-05-03T06:05:04;101536.75;;;14.06;53.70
73700;BME280;62005;50.082;8.988;2023-05-03T06:07:30;101557.06;;;14.48;52.70
73700;BME280;62005;50.082;8.988;2023-05-03T06:09:55;101548.13;;;14.65;53.36
73700;BME280;62005;50.082;8.988;2023-05-03T06:12:20;101549.16;;;14.95;51.81
73700;BME280;62005;50.082;8.988;2023-05-03T06:14:46;101544.38;;;15.15;50.08
73700;BME280;62005;50.082;8.988;2023-05-03T06:17:11;101545.78;;;15.42;50.77
73700;BME280;62005;50.082;8.988;2023-05-03T06:19:36;101538.84;;;15.64;49.36
73700;BME280;62005;50.082;8.988;2023-05-03T06:22:03;101533.06;;;15.91;47.90
73700;BME280;62005;50.082;8.988;2023-05-03T06:24:28;101531.81;;;16.23;47.69
73700;BME280;62005;50.082;8.988;2023-05-03T06:26:57;101535.97;;;16.55;46.10
73700;BME280;62005;50.082;8.988;2023-05-03T06:29:23;101531.59;;;16.65;45.85
73700;BME280;62005;50.082;8.988;2023-05-03T06:31:48;101517.25;;;16.70;46.84
73700;BME280;62005;50.082;8.988;2023-05-03T06:34:17;101529.16;;;16.87;46.20
73700;BME280;62005;50.082;8.988;2023-05-03T06:36:44;101533.19;;;16.96;45.96
73700;BME280;62005;50.082;8.988;2023-05-03T06:39:09;101524.63;;;17.04;46.55
73700;BME280;62005;50.082;8.988;2023-05-03T06:41:35;101522.03;;;17.09;44.52
73700;BME280;62005;50.082;8.988;2023-05-03T06:44:01;101513.81;;;17.09;43.92
73700;BME280;62005;50.082;8.988;2023-05-03T06:46:27;101532.25;;;17.25;45.24
73700;BME280;62005;50.082;8.988;2023-05-03T06:48:52;101538.41;;;17.32;45.00
73700;BME280;62005;50.082;8.988;2023-05-03T06:51:21;101541.25;;;17.37;44.83
73700;BME280;62005;50.082;8.988;2023-05-03T06:53:52;101543.66;;;17.45;44.48
73700;BME280;62005;50.082;8.988;2023-05-03T06:56:17;101532.00;;;17.38;42.77
73700;BME280;62005;50.082;8.988;2023-05-03T06:58:42;101536.50;;;17.44;42.13
73700;BME280;62005;50.082;8.988;2023-05-03T07:01:08;101525.13;;;17.47;43.48
73700;BME280;62005;50.082;8.988;2023-05-03T07:03:33;101529.16;;;17.56;44.45
73700;BME280;62005;50.082;8.988;2023-05-03T07:05:58;101529.41;;;17.66;43.71
73700;BME280;62005;50.082;8.988;2023-05-03T07:08:24;101533.88;;;17.72;42.63
73700;BME280;62005;50.082;8.988;2023-05-03T07:10:49;101530.06;;;17.73;41.83
73700;BME280;62005;50.082;8.988;2023-05-03T07:13:14;101518.56;;;17.71;42.39
73700;BME280;62005;50.082;8.988;2023-05-03T07:15:40;101522.81;;;17.79;43.22
73700;BME280;62005;50.082;8.988;2023-05-03T07:18:05;101528.63;;;17.82;42.59
73700;BME280;62005;50.082;8.988;2023-05-03T07:20:31;101522.19;;;17.88;42.00
73700;BME280;62005;50.082;8.988;2023-05-03T07:22:56;101522.88;;;17.95;42.52
73700;BME280;62005;50.082;8.988;2023-05-03T07:25:22;101517.66;;;17.94;41.16
73700;BME280;62005;50.082;8.988;2023-05-03T07:27:47;101515.75;;;17.94;40.94
73700;BME280;62005;50.082;8.988;2023-05-03T07:30:13;101522.16;;;18.00;42.11
73700;BME280;62005;50.082;8.988;2023-05-03T07:32:38;101513.69;;;18.01;43.01
73700;BME280;62005;50.082;8.988;2023-05-03T07:35:04;101510.00;;;18.07;43.95
73700;BME280;62005;50.082;8.988;2023-05-03T07:37:31;101507.56;;;18.23;41.97
73700;BME280;62005;50.082;8.988;2023-05-03T07:39:56;101518.50;;;18.23;41.75
73700;BME280;62005;50.082;8.988;2023-05-03T07:42:22;101508.06;;;18.19;41.49
73700;BME280;62005;50.082;8.988;2023-05-03T07:44:47;101506.56;;;18.29;42.56
73700;BME280;62005;50.082;8.988;2023-05-03T07:47:13;101506.06;;;18.32;41.83
73700;BME280;62005;50.082;8.988;2023-05-03T07:49:38;101513.22;;;18.33;40.86
73700;BME280;62005;50.082;8.988;2023-05-03T07:52:03;101518.69;;;18.33;41.27
73700;BME280;62005;50.082;8.988;2023-05-03T07:54:29;101498.25;;;18.23;41.17
73700;BME280;62005;50.082;8.988;2023-05-03T07:56:54;101509.69;;;18.20;41.21
73700;BME280;62005;50.082;8.988;2023-05-03T07:59:20;101514.59;;;18.18;41.92
73700;BME280;62005;50.082;8.988;2023-05-03T08:01:45;101517.41;;;18.23;41.52
73700;BME280;62005;50.082;8.988;2023-05-03T08:04:10;101509.69;;;18.20;41.57
73700;BME280;62005;50.082;8.988;2023-05-03T08:06:35;101514.69;;;18.23;43.26
73700;BME280;62005;50.082;8.988;2023-05-03T08:09:02;101508.81;;;18.32;42.33
73700;BME280;62005;50.082;8.988;2023-05-03T08:11:31;101509.75;;;18.37;41.57
73700;BME280;62005;50.082;8.988;2023-05-03T08:13:57;101514.59;;;18.47;42.20
73700;BME280;62005;50.082;8.988;2023-05-03T08:16:22;101503.66;;;18.47;42.63
73700;BME280;62005;50.082;8.988;2023-05-03T08:18:47;101507.16;;;18.59;43.11
73700;BME280;62005;50.082;8.988;2023-05-03T08:21:13;101507.31;;;18.69;43.65
73700;BME280;62005;50.082;8.988;2023-05-03T08:23:39;101495.38;;;18.75;42.49
73700;BME280;62005;50.082;8.988;2023-05-03T08:26:04;101497.09;;;18.81;41.98
73700;BME280;62005;50.082;8.988;2023-05-03T08:28:32;101498.19;;;18.80;41.44
73700;BME280;62005;50.082;8.988;2023-05-03T08:30:57;101488.31;;;18.79;41.37
73700;BME280;62005;50.082;8.988;2023-05-03T08:33:22;101492.13;;;18.78;42.17
73700;BME280;62005;50.082;8.988;2023-05-03T08:35:48;101498.28;;;18.85;41.00
73700;BME280;62005;50.082;8.988;2023-05-03T08:38:13;101497.50;;;18.89;42.82
73700;BME280;62005;50.082;8.988;2023-05-03T08:40:39;101495.19;;;18.98;42.42
73700;BME280;62005;50.082;8.988;2023-05-03T08:43:08;101495.69;;;19.11;42.74
73700;BME280;62005;50.082;8.988;2023-05-03T08:45:34;101496.34;;;19.18;42.87
73700;BME280;62005;50.082;8.988;2023-05-03T08:48:00;101489.00;;;19.24;42.20
73700;BME280;62005;50.082;8.988;2023-05-03T08:50:28;101493.28;;;19.31;41.77
73700;BME280;62005;50.082;8.988;2023-05-03T08:52:54;101489.69;;;19.31;41.67
73700;BME280;62005;50.082;8.988;2023-05-03T08:55:20;101501.81;;;19.35;40.72
73700;BME280;62005;50.082;8.988;2023-05-03T08:57:45;101502.38;;;19.37;41.74
73700;BME280;62005;50.082;8.988;2023-05-03T09:00:11;101501.31;;;19.38;40.88
73700;BME280;62005;50.082;8.988;2023-05-03T09:02:37;101490.84;;;19.35;41.52
73700;BME280;62005;50.082;8.988;2023-05-03T09:10:26;101496.50;;;19.45;39.90
73700;BME280;62005;50.082;8.988;2023-05-03T09:13:00;101498.66;;;19.43;39.95
73700;BME280;62005;50.082;8.988;2023-05-03T09:15:27;101500.81;;;19.41;40.00
73700;BME280;62005;50.082;8.988;2023-05-03T09:18:14;101492.91;;;19.44;42.47
73700;BME280;62005;50.082;8.988;2023-05-03T09:20:40;101498.47;;;19.50;41.49
73700;BME280;62005;50.082;8.988;2023-05-03T09:23:09;101493.22;;;19.48;41.29
73700;BME280;62005;50.082;8.988;2023-05-03T09:25:41;101503.09;;;19.49;42.79
73700;BME280;62005;50.082;8.988;2023-05-03T09:28:06;101477.53;;;19.43;43.07
73700;BME280;62005;50.082;8.988;2023-05-03T09:30:33;101481.28;;;19.59;43.34
73700;BME280;62005;50.082;8.988;2023-05-03T09:32:58;101472.00;;;19.60;41.84
73700;BME280;62005;50.082;8.988;2023-05-03T09:35:23;101480.31;;;19.70;41.83
73700;BME280;62005;50.082;8.988;2023-05-03T09:37:49;101487.03;;;19.79;41.67
73700;BME280;62005;50.082;8.988;2023-05-03T09:40:14;101480.53;;;19.85;42.03
73700;BME280;62005;50.082;8.988;2023-05-03T09:45:31;101468.00;;;19.94;41.69
73700;BME280;62005;50.082;8.988;2023-05-03T09:47:57;101463.03;;;19.91;42.48
73700;BME280;62005;50.082;8.988;2023-05-03T09:50:23;101467.50;;;19.97;41.94
73700;BME280;62005;50.082;8.988;2023-05-03T09:52:50;101465.31;;;19.99;41.39
73700;BME280;62005;50.082;8.988;2023-05-03T09:55:16;101431.53;;;19.72;40.16
73700;BME280;62005;50.082;8.988;2023-05-03T09:57:43;101459.19;;;19.92;40.49
73700;BME280;62005;50.082;8.988;2023-05-03T10:00:11;101452.81;;;19.87;41.03
73700;BME280;62005;50.082;8.988;2023-05-03T10:02:39;101463.03;;;19.91;40.66
73700;BME280;62005;50.082;8.988;2023-05-03T10:05:06;101462.94;;;19.81;39.28
73700;BME280;62005;50.082;8.988;2023-05-03T10:07:33;101462.28;;;19.74;40.47
73700;BME280;62005;50.082;8.988;2023-05-03T10:09:58;101454.50;;;19.66;39.91
73700;BME280;62005;50.082;8.988;2023-05-03T10:12:24;101449.53;;;19.63;40.11
73700;BME280;62005;50.082;8.988;2023-05-03T10:14:52;101442.88;;;19.59;41.99
73700;BME280;62005;50.082;8.988;2023-05-03T10:17:22;101442.38;;;19.62;41.17
73700;BME280;62005;50.082;8.988;2023-05-03T10:19:53;101435.25;;;19.61;41.39
73700;BME280;62005;50.082;8.988;2023-05-03T10:22:20;101441.84;;;19.65;40.06
73700;BME280;62005;50.082;8.988;2023-05-03T10:30:29;101437.84;;;19.51;40.38
73700;BME280;62005;50.082;8.988;2023-05-03T10:35:33;101438.25;;;19.38;40.50
73700;BME280;62005;50.082;8.988;2023-05-03T10:38:12;101417.06;;;19.33;42.77
73700;BME280;62005;50.082;8.988;2023-05-03T10:40:42;101425.97;;;19.45;42.61
73700;BME280;62005;50.082;8.988;2023-05-03T10:48:26;101414.75;;;19.47;41.74
73700;BME280;62005;50.082;8.988;2023-05-03T10:50:53;101416.75;;;19.52;40.81
73700;BME280;62005;50.082;8.988;2023-05-03T10:53:39;101401.63;;;19.49;41.91
73700;BME280;62005;50.082;8.988;2023-05-03T10:56:08;101398.88;;;19.49;41.76
73700;BME280;62005;50.082;8.988;2023-05-03T11:01:03;101401.69;;;19.54;42.26
73700;BME280;62005;50.082;8.988;2023-05-03T11:03:34;101400.69;;;19.60;42.81
73700;BME280;62005;50.082;8.988;2023-05-03T11:06:03;101405.97;;;19.67;43.86
73700;BME280;62005;50.082;8.988;2023-05-03T11:08:28;101395.28;;;19.70;43.33
73700;BME280;62005;50.082;8.988;2023-05-03T11:11:01;101398.06;;;19.75;42.58
73700;BME280;62005;50.082;8.988;2023-05-03T11:13:26;101398.59;;;19.72;42.16
73700;BME280;62005;50.082;8.988;2023-05-03T11:15:53;101374.56;;;19.58;42.54
73700;BME280;62005;50.082;8.988;2023-05-03T11:18:18;101403.06;;;19.78;43.22
73700;BME280;62005;50.082;8.988;2023-05-03T11:20:44;101399.75;;;19.76;42.76
73700;BME280;62005;50.082;8.988;2023-05-03T11:23:10;101394.31;;;19.81;44.25
73700;BME280;62005;50.082;8.988;2023-05-03T11:25:36;101389.09;;;19.80;43.39
73700;BME280;62005;50.082;8.988;2023-05-03T11:28:02;101397.69;;;19.88;44.39
73700;BME280;62005;50.082;8.988;2023-05-03T11:30:28;101381.19;;;19.83;43.31
73700;BME280;62005;50.082;8.988;2023-05-03T11:32:54;101381.25;;;19.93;42.77
73700;BME280;62005;50.082;8.988;2023-05-03T11:35:20;101378.00;;;19.96;41.93
73700;BME280;62005;50.082;8.988;2023-05-03T11:37:48;101361.53;;;19.96;41.65
73700;BME280;62005;50.082;8.988;2023-05-03T11:40:14;101365.44;;;20.05;43.27
73700;BME280;62005;50.082;8.988;2023-05-03T11:42:57;101370.22;;;20.15;43.05
73700;BME280;62005;50.082;8.988;2023-05-03T11:45:44;101364.44;;;20.11;43.53
73700;BME280;62005;50.082;8.988;2023-05-03T11:48:11;101375.50;;;20.21;42.85
73700;BME280;62005;50.082;8.988;2023-05-03T11:50:53;101364.34;;;20.28;40.90
73700;BME280;62005;50.082;8.988;2023-05-03T11:53:21;101359.66;;;20.28;39.33
73700;BME280;62005;50.082;8.988;2023-05-03T11:55:49;101365.78;;;20.40;41.49
73700;BME280;62005;50.082;8.988;2023-05-03T11:58:25;101367.47;;;20.46;42.20
73700;BME280;62005;50.082;8.988;2023-05-03T12:00:53;101374.66;;;20.47;40.72
73700;BME280;62005;50.082;8.988;2023-05-03T12:03:23;101365.91;;;20.55;41.32
73700;BME280;62005;50.082;8.988;2023-05-03T12:05:51;101352.16;;;20.55;41.69
73700;BME280;62005;50.082;8.988;2023-05-03T12:08:17;101363.75;;;20.62;41.07
73700;BME280;62005;50.082;8.988;2023-05-03T12:10:48;101350.53;;;20.59;39.33
73700;BME280;62005;50.082;8.988;2023-05-03T12:13:14;101346.09;;;20.53;39.89
73700;BME280;62005;50.082;8.988;2023-05-03T12:15:40;101344.44;;;20.47;42.06
73700;BME280;62005;50.082;8.988;2023-05-03T12:18:11;101346.06;;;20.48;41.94
73700;BME280;62005;50.082;8.988;2023-05-03T12:20:37;101343.06;;;20.50;41.74
73700;BME280;62005;50.082;8.988;2023-05-03T12:23:05;101332.34;;;20.48;41.51
73700;BME280;62005;50.082;8.988;2023-05-03T12:25:32;101325.50;;;20.51;41.73
73700;BME280;62005;50.082;8.988;2023-05-03T12:28:00;101329.63;;;20.53;42.07
73700;BME280;62005;50.082;8.988;2023-05-03T12:30:27;101330.47;;;20.54;41.98
73700;BME280;62005;50.082;8.988;2023-05-03T12:32:53;101335.13;;;20.53;42.53
73700;BME280;62005;50.082;8.988;2023-05-03T12:35:19;101323.00;;;20.49;40.15
73700;BME280;62005;50.082;8.988;2023-05-03T12:37:45;101326.28;;;20.46;40.71
73700;BME280;62005;50.082;8.988;2023-05-03T12:40:12;101327.38;;;20.45;41.81
73700;BME280;62005;50.082;8.988;2023-05-03T12:42:38;101318.03;;;20.46;41.36
73700;BME280;62005;50.082;8.988;2023-05-03T12:45:04;101319.09;;;20.40;40.51
73700;BME280;62005;50.082;8.988;2023-05-03T12:47:29;101315.78;;;20.38;39.19
73700;BME280;62005;50.082;8.988;2023-05-03T12:49:55;101318.78;;;20.37;41.36
73700;BME280;62005;50.082;8.988;2023-05-03T12:52:20;101288.22;;;20.23;41.04
73700;BME280;62005;50.082;8.988;2023-05-03T12:54:47;101303.97;;;20.38;42.38
73700;BME280;62005;50.082;8.988;2023-05-03T12:57:12;101298.75;;;20.41;42.13
73700;BME280;62005;50.082;8.988;2023-05-03T12:59:39;101283.34;;;20.35;41.45
73700;BME280;62005;50.082;8.988;2023-05-03T13:02:05;101298.81;;;20.46;40.85
73700;BME280;62005;50.082;8.988;2023-05-03T13:04:31;101296.06;;;20.46;41.10
73700;BME280;62005;50.082;8.988;2023-05-03T13:06:57;101290.03;;;20.49;41.07
73700;BME280;62005;50.082;8.988;2023-05-03T13:09:22;101289.50;;;20.47;38.91
73700;BME280;62005;50.082;8.988;2023-05-03T13:11:48;101265.81;;;20.41;39.95
73700;BME280;62005;50.082;8.988;2023-05-03T13:14:14;101265.81;;;20.41;41.74
73700;BME280;62005;50.082;8.988;2023-05-03T13:16:44;101249.31;;;20.41;40.30
73700;BME280;62005;50.082;8.988;2023-05-03T13:19:10;101267.47;;;20.42;41.37
73700;BME280;62005;50.082;8.988;2023-05-03T13:21:35;101269.13;;;20.43;39.57
73700;BME280;62005;50.082;8.988;2023-05-03T13:24:01;101240.44;;;20.24;38.04
73700;BME280;62005;50.082;8.988;2023-05-03T13:26:26;101247.38;;;20.37;38.81
73700;BME280;62005;50.082;8.988;2023-05-03T13:28:52;101248.19;;;20.32;38.90